Time;durP1;ratioP1;P1;durP2;ratioP2;P2;SDS_P1;SDS_P2;PMS_P1;PMS_P2;Temp;Humidity;BMP_temperature;BMP_pressure;BME280_temperature;BME280_humidity;BME280_pressure;Samples;Min_cycle;Max_cycle;Signal;HPM_P1;HPM_P2
2023/12/05 00:01:19;;;;;;;13.43;11.35;;;1.00;99.90;;;;;;5099636;28;20520;-67
2023/12/05 00:03:45;;;;;;;11.65;10.45;;;1.00;99.90;;;;;;5104272;27;20040;-67
2023/12/05 00:06:11;;;;;;;14.10;12.32;;;1.00;99.90;;;;;;5099869;28;20478;-67
2023/12/05 00:08:37;;;;;;;13.18;11.23;;;1.00;99.90;;;;;;5097461;28;20039;-67
2023/12/05 00:11:06;;;;;;;15.20;12.10;;;0.90;99.90;;;;;;5100677;27;20498;-67
2023/12/05 00:13:33;;;;;;;12.68;11.10;;;1.00;99.90;;;;;;5104379;27;20075;-67
2023/12/05 00:15:58;;;;;;;15.32;12.15;;;1.00;99.90;;;;;;5096377;28;20039;-67
2023/12/05 00:18:24;;;;;;;13.68;11.75;;;1.00;99.90;;;;;;5097235;28;20370;-67
2023/12/05 00:20:51;;;;;;;15.70;12.43;;;1.00;99.90;;;;;;5097835;28;20046;-67
2023/12/05 00:23:16;;;;;;;14.57;11.80;;;0.90;99.90;;;;;;5098051;28;20093;-67
2023/12/05 00:25:42;;;;;;;14.13;10.80;;;0.90;99.90;;;;;;5100510;27;20031;-67
2023/12/05 00:28:09;;;;;;;13.35;11.32;;;0.90;99.90;;;;;;5102891;28;20058;-67
2023/12/05 00:30:34;;;;;;;14.10;11.60;;;0.90;99.90;;;;;;5098140;28;20084;-67
2023/12/05 00:33:00;;;;;;;15.13;12.23;;;0.90;99.90;;;;;;5099293;27;20044;-67
2023/12/05 00:35:26;;;;;;;13.13;11.18;;;0.90;99.90;;;;;;5081374;28;20043;-67
2023/12/05 00:37:52;;;;;;;14.05;11.38;;;0.90;99.90;;;;;;5100622;27;20031;-67
2023/12/05 00:40:17;;;;;;;14.50;11.15;;;0.90;99.90;;;;;;5094146;27;20047;-67
2023/12/05 00:42:43;;;;;;;13.45;11.32;;;0.90;99.90;;;;;;5098038;28;20098;-67
2023/12/05 00:45:12;;;;;;;14.02;11.75;;;0.80;99.90;;;;;;5100234;28;20638;-67
2023/12/05 00:47:39;;;;;;;13.35;11.15;;;0.90;99.90;;;;;;5099190;28;20059;-67
2023/12/05 00:50:05;;;;;;;15.07;11.88;;;0.80;99.90;;;;;;5094996;27;20040;-67
2023/12/05 00:52:31;;;;;;;13.68;10.85;;;0.80;99.90;;;;;;5101455;28;20039;-67
2023/12/05 00:54:56;;;;;;;13.23;11.40;;;0.80;99.90;;;;;;5101221;27;20106;-67
2023/12/05 00:57:22;;;;;;;14.88;11.88;;;0.80;99.90;;;;;;5099065;27;20046;-67
2023/12/05 00:59:47;;;;;;;14.52;12.00;;;0.80;99.90;;;;;;5096750;27;20055;-67
2023/12/05 01:02:13;;;;;;;15.60;12.13;;;0.80;99.90;;;;;;5099006;27;20265;-67
2023/12/05 01:04:39;;;;;;;14.35;11.65;;;0.80;99.90;;;;;;5078318;27;20051;-67
2023/12/05 01:07:04;;;;;;;14.82;12.63;;;0.80;99.90;;;;;;5097219;27;20446;-67
2023/12/05 01:09:30;;;;;;;15.60;13.30;;;0.80;99.90;;;;;;5098960;27;20040;-67
2023/12/05 01:11:56;;;;;;;14.35;12.75;;;0.80;99.90;;;;;;5098939;27;20043;-67
2023/12/05 01:14:21;;;;;;;13.85;11.35;;;0.70;99.90;;;;;;5098295;28;20458;-67
2023/12/05 01:16:47;;;;;;;16.08;13.02;;;0.80;99.90;;;;;;5096257;28;20048;-67
2023/12/05 01:19:13;;;;;;;13.93;12.15;;;0.70;99.90;;;;;;5096821;27;20035;-67
2023/12/05 01:21:39;;;;;;;16.23;13.50;;;0.80;99.90;;;;;;5097465;27;20032;-67
2023/12/05 01:24:06;;;;;;;15.10;12.98;;;0.80;99.90;;;;;;5097447;28;20039;-67
2023/12/05 01:26:31;;;;;;;15.20;11.82;;;0.70;99.90;;;;;;5095597;28;20027;-67
2023/12/05 01:28:57;;;;;;;14.73;12.40;;;0.70;99.90;;;;;;5098849;28;20151;-67
2023/12/05 01:31:22;;;;;;;15.75;12.95;;;0.70;99.90;;;;;;5100749;27;20031;-67
2023/12/05 01:33:48;;;;;;;17.40;12.43;;;0.70;99.90;;;;;;5096078;28;20052;-67
2023/12/05 01:36:14;;;;;;;16.05;13.20;;;0.70;99.90;;;;;;5099182;27;20082;-67
2023/12/05 01:38:40;;;;;;;16.95;14.23;;;0.70;99.90;;;;;;5098831;28;20134;-67
2023/12/05 01:41:07;;;;;;;17.13;14.02;;;0.70;99.90;;;;;;5097354;27;20051;-67
2023/12/05 01:43:32;;;;;;;17.60;12.95;;;0.70;99.90;;;;;;5098893;28;20101;-67
2023/12/05 01:45:58;;;;;;;15.68;13.98;;;0.70;99.90;;;;;;5097126;28;20035;-67
2023/12/05 01:48:26;;;;;;;17.08;14.13;;;0.70;99.90;;;;;;5098261;28;20466;-67
2023/12/05 01:50:54;;;;;;;16.52;13.90;;;0.70;99.90;;;;;;5092942;28;20044;-67
2023/12/05 01:53:21;;;;;;;18.05;14.85;;;0.70;99.90;;;;;;5097474;28;20052;-67
2023/12/05 01:55:48;;;;;;;19.38;15.60;;;0.70;99.90;;;;;;5096222;27;20024;-67
2023/12/05 01:58:15;;;;;;;18.55;14.65;;;0.70;99.90;;;;;;5100269;28;20063;-67
2023/12/05 02:00:42;;;;;;;15.57;13.25;;;0.60;99.90;;;;;;5096656;27;20082;-67
2023/12/05 02:03:08;;;;;;;19.13;15.10;;;0.60;99.90;;;;;;5100929;27;20406;-67
2023/12/05 02:05:34;;;;;;;18.45;14.73;;;0.70;99.90;;;;;;5096786;28;20572;-67
2023/12/05 02:08:00;;;;;;;20.33;15.95;;;0.70;99.90;;;;;;5077659;28;20028;-67
2023/12/05 02:10:26;;;;;;;19.98;15.60;;;0.60;99.90;;;;;;5095771;27;20158;-67
2023/12/05 02:12:51;;;;;;;17.95;15.10;;;0.60;99.90;;;;;;5098902;28;20126;-67
2023/12/05 02:15:18;;;;;;;19.67;15.82;;;0.70;99.90;;;;;;5095740;28;20035;-67
2023/12/05 02:18:10;;;;;;;18.33;14.43;;;0.60;99.90;;;;;;5100920;28;20587;-67
2023/12/05 02:21:28;;;;;;;17.35;14.20;;;0.60;99.90;;;;;;5077422;28;20052;-67
2023/12/05 02:24:26;;;;;;;18.45;15.15;;;0.70;99.90;;;;;;5066954;27;20378;-67
2023/12/05 02:27:02;;;;;;;17.50;14.98;;;0.70;99.90;;;;;;5094113;27;20068;-67
2023/12/05 02:29:27;;;;;;;20.23;17.20;;;0.70;99.90;;;;;;5098321;28;20389;-67
2023/12/05 02:31:54;;;;;;;18.58;16.58;;;0.60;99.90;;;;;;5096386;28;20041;-67
2023/12/05 02:34:20;;;;;;;20.92;16.65;;;0.60;99.90;;;;;;5095688;28;20043;-67
2023/12/05 02:37:18;;;;;;;18.88;15.57;;;0.60;99.90;;;;;;5098538;27;20082;-67
2023/12/05 02:40:08;;;;;;;18.70;15.20;;;0.70;99.90;;;;;;5094584;28;20047;-67
2023/12/05 02:42:36;;;;;;;19.42;15.73;;;0.70;99.90;;;;;;5096642;28;20557;-67
2023/12/05 02:45:04;;;;;;;21.27;17.92;;;0.60;99.90;;;;;;5097030;28;20044;-67
2023/12/05 02:47:33;;;;;;;20.40;16.42;;;0.60;99.90;;;;;;5082510;28;20043;-67
2023/12/05 02:49:59;;;;;;;19.30;15.85;;;0.60;99.90;;;;;;5094247;28;20046;-67
2023/12/05 02:52:24;;;;;;;19.80;16.20;;;0.60;99.90;;;;;;5096743;28;20036;-67
2023/12/05 02:54:50;;;;;;;20.48;17.23;;;0.60;99.90;;;;;;5099204;28;20613;-67
2023/12/05 02:57:16;;;;;;;24.30;18.05;;;0.60;99.90;;;;;;5096051;28;20087;-67
2023/12/05 02:59:42;;;;;;;20.15;17.60;;;0.70;99.90;;;;;;5128571;27;20050;-67
2023/12/05 03:02:07;;;;;;;18.83;16.20;;;0.70;99.90;;;;;;5094145;28;20047;-67
2023/12/05 03:04:33;;;;;;;18.00;15.65;;;0.70;99.90;;;;;;5096757;27;20036;-67
2023/12/05 03:06:58;;;;;;;19.83;16.75;;;0.60;99.90;;;;;;5088505;28;20036;-67
2023/12/05 03:09:24;;;;;;;20.92;17.65;;;0.70;99.90;;;;;;5097437;28;20065;-67
2023/12/05 03:11:49;;;;;;;21.05;17.10;;;0.60;99.90;;;;;;5101123;27;20027;-67
2023/12/05 03:14:16;;;;;;;20.73;18.52;;;0.70;99.90;;;;;;5096366;28;20508;-66
2023/12/05 03:16:43;;;;;;;19.38;15.43;;;0.70;99.90;;;;;;5100959;28;20049;-67
2023/12/05 03:19:08;;;;;;;20.50;17.77;;;0.70;99.90;;;;;;5098112;28;20097;-67
2023/12/05 03:21:34;;;;;;;20.60;16.67;;;0.70;99.90;;;;;;5099488;28;20063;-67
2023/12/05 03:24:00;;;;;;;22.63;18.75;;;0.70;99.90;;;;;;5096191;27;20047;-67
2023/12/05 03:26:26;;;;;;;22.15;19.38;;;0.70;99.90;;;;;;5099215;28;20512;-67
2023/12/05 03:28:52;;;;;;;21.25;17.38;;;0.70;99.90;;;;;;5096899;28;21022;-67
2023/12/05 03:31:18;;;;;;;22.35;18.52;;;0.70;99.90;;;;;;5102091;27;20393;-67
2023/12/05 03:33:44;;;;;;;23.38;19.27;;;0.70;99.90;;;;;;5101545;27;20058;-66
2023/12/05 03:36:11;;;;;;;22.42;19.70;;;0.70;99.90;;;;;;5105849;27;20047;-67
2023/12/05 03:38:38;;;;;;;23.05;20.35;;;0.70;99.90;;;;;;5097898;28;20043;-66
2023/12/05 03:41:05;;;;;;;24.05;21.27;;;0.60;99.90;;;;;;5096682;28;20118;-67
2023/12/05 03:43:30;;;;;;;25.08;20.15;;;0.70;99.90;;;;;;5100475;27;20040;-67
2023/12/05 03:45:56;;;;;;;24.50;19.00;;;0.70;99.90;;;;;;5098548;28;20049;-67
2023/12/05 03:48:22;;;;;;;23.85;20.15;;;0.70;99.90;;;;;;5100164;28;20031;-66
2023/12/05 03:50:47;;;;;;;25.60;20.00;;;0.60;99.90;;;;;;5098219;27;20044;-67
2023/12/05 03:53:13;;;;;;;25.90;20.77;;;0.70;99.90;;;;;;5096882;28;20043;-67
2023/12/05 03:55:39;;;;;;;25.15;21.10;;;0.70;99.90;;;;;;5097748;27;20861;-67
2023/12/05 03:58:04;;;;;;;23.45;20.20;;;0.70;99.90;;;;;;5097395;27;20051;-67
2023/12/05 04:00:30;;;;;;;24.52;20.58;;;0.70;99.90;;;;;;5097627;27;20028;-67
2023/12/05 04:02:56;;;;;;;27.52;22.67;;;0.70;99.90;;;;;;5100019;27;20036;-67
2023/12/05 04:05:22;;;;;;;25.05;21.52;;;0.70;99.90;;;;;;5095000;27;20180;-67
2023/12/05 04:07:47;;;;;;;29.20;23.52;;;0.70;99.90;;;;;;5086914;27;20039;-67
2023/12/05 04:10:13;;;;;;;25.85;21.45;;;0.70;99.90;;;;;;5096931;28;20036;-67
2023/12/05 04:12:39;;;;;;;26.40;23.27;;;0.70;99.90;;;;;;5099983;28;20083;-67
2023/12/05 04:15:06;;;;;;;24.00;19.48;;;0.70;99.90;;;;;;5101282;27;20389;-67
2023/12/05 04:17:32;;;;;;;25.48;21.60;;;0.70;99.90;;;;;;5095951;28;20100;-67
2023/12/05 04:19:58;;;;;;;25.83;22.23;;;0.70;99.90;;;;;;5096636;27;20489;-67
2023/12/05 04:22:23;;;;;;;27.23;22.90;;;0.70;99.90;;;;;;5096243;28;20055;-67
2023/12/05 04:24:49;;;;;;;25.77;21.98;;;0.70;99.90;;;;;;5098121;28;20071;-67
2023/12/05 04:27:15;;;;;;;27.13;21.90;;;0.70;99.90;;;;;;5100867;28;20040;-67
2023/12/05 04:29:42;;;;;;;25.02;20.40;;;0.70;99.90;;;;;;5102351;27;20039;-67
2023/12/05 04:32:08;;;;;;;27.75;21.40;;;0.70;99.90;;;;;;5100586;28;20406;-67
2023/12/05 04:34:35;;;;;;;28.60;22.70;;;0.70;99.90;;;;;;5097494;28;20040;-67
2023/12/05 04:37:00;;;;;;;26.23;21.63;;;0.70;99.90;;;;;;5101193;28;20044;-67
2023/12/05 04:39:26;;;;;;;30.15;22.85;;;0.70;99.90;;;;;;5098782;28;20028;-67
2023/12/05 04:41:51;;;;;;;26.70;22.80;;;0.70;99.90;;;;;;5099899;28;20039;-67
2023/12/05 04:44:17;;;;;;;27.00;22.27;;;0.70;99.90;;;;;;5098849;27;20044;-67
2023/12/05 04:46:43;;;;;;;29.42;22.63;;;0.70;99.90;;;;;;5097779;28;20028;-67
2023/12/05 04:49:09;;;;;;;25.98;20.92;;;0.70;99.90;;;;;;5095418;27;20082;-67
2023/12/05 04:51:34;;;;;;;31.30;22.33;;;0.70;99.90;;;;;;5098128;27;20076;-67
2023/12/05 04:54:00;;;;;;;30.05;22.70;;;0.70;99.90;;;;;;5099836;28;20054;-67
2023/12/05 04:56:26;;;;;;;27.45;22.48;;;0.70;99.90;;;;;;5097168;28;20076;-67
2023/12/05 04:58:52;;;;;;;28.70;21.92;;;0.70;99.90;;;;;;5097282;27;20042;-67
2023/12/05 05:01:17;;;;;;;30.75;23.92;;;0.70;99.90;;;;;;5095879;27;20040;-67
2023/12/05 05:03:43;;;;;;;28.38;23.08;;;0.70;99.90;;;;;;5097809;27;20046;-67
2023/12/05 05:06:09;;;;;;;28.35;21.98;;;0.70;99.90;;;;;;5111202;27;20186;-67
2023/12/05 05:08:35;;;;;;;32.92;25.55;;;0.70;99.90;;;;;;5096985;28;20051;-67
2023/12/05 05:11:00;;;;;;;27.50;22.77;;;0.70;99.90;;;;;;5097445;28;20384;-67
2023/12/05 05:13:26;;;;;;;30.05;23.75;;;0.70;99.90;;;;;;5104192;27;20040;-67
2023/12/05 05:15:52;;;;;;;31.65;25.13;;;0.70;99.90;;;;;;5100079;28;20042;-67
2023/12/05 05:18:17;;;;;;;31.02;24.45;;;0.70;99.90;;;;;;5097293;28;20097;-66
2023/12/05 05:20:43;;;;;;;31.23;25.38;;;0.70;99.90;;;;;;5098673;27;20519;-66
2023/12/05 05:23:09;;;;;;;33.95;25.73;;;0.70;99.90;;;;;;5098915;28;20505;-66
2023/12/05 05:25:35;;;;;;;31.65;24.77;;;0.70;99.90;;;;;;5096226;28;20052;-67
2023/12/05 05:28:01;;;;;;;33.03;25.38;;;0.70;99.90;;;;;;5100137;27;20043;-67
2023/12/05 05:30:27;;;;;;;33.65;26.17;;;0.70;99.90;;;;;;5094367;27;20032;-67
2023/12/05 05:32:52;;;;;;;31.55;25.95;;;0.60;99.90;;;;;;5096699;27;20036;-66
2023/12/05 05:35:18;;;;;;;35.08;26.13;;;0.70;99.90;;;;;;5093258;28;20523;-67
2023/12/05 05:37:44;;;;;;;33.55;25.60;;;0.70;99.90;;;;;;5095865;28;20054;-67
2023/12/05 05:40:10;;;;;;;33.08;26.15;;;0.60;99.90;;;;;;5094667;28;20048;-67
2023/12/05 05:42:36;;;;;;;33.97;25.50;;;1.40;99.90;;;;;;5097401;28;20807;-67
2023/12/05 05:45:02;;;;;;;33.30;26.08;;;0.60;99.90;;;;;;5097674;27;20039;-67
2023/12/05 05:47:28;;;;;;;33.53;25.40;;;0.60;99.90;;;;;;5094349;27;20047;-67
2023/12/05 05:49:54;;;;;;;34.95;25.48;;;0.70;99.90;;;;;;5098111;27;20067;-67
2023/12/05 05:52:20;;;;;;;33.38;25.88;;;0.70;99.90;;;;;;5101374;27;20070;-66
2023/12/05 05:54:48;;;;;;;35.13;26.77;;;0.70;99.90;;;;;;5098709;27;20512;-66
2023/12/05 05:57:14;;;;;;;35.67;26.30;;;0.70;99.90;;;;;;5096678;28;20660;-66
2023/12/05 05:59:42;;;;;;;37.45;25.92;;;0.60;99.90;;;;;;5093829;27;20054;-66
2023/12/05 06:02:08;;;;;;;35.67;26.23;;;0.60;99.90;;;;;;5081405;28;20065;-66
2023/12/05 06:04:39;;;;;;;35.70;25.25;;;0.60;99.90;;;;;;5095665;28;20040;-66
2023/12/05 06:07:05;;;;;;;34.83;26.23;;;0.60;99.90;;;;;;5093459;28;20078;-66
2023/12/05 06:09:31;;;;;;;37.65;26.23;;;0.70;99.90;;;;;;5098868;28;20482;-66
2023/12/05 06:11:56;;;;;;;37.05;26.85;;;0.70;99.90;;;;;;5096266;28;20038;-66
2023/12/05 06:14:22;;;;;;;37.13;25.73;;;0.60;99.90;;;;;;5091915;28;20055;-66
2023/12/05 06:16:48;;;;;;;34.08;25.42;;;0.60;99.90;;;;;;5095982;28;20048;-66
2023/12/05 06:19:14;;;;;;;35.42;25.15;;;0.60;99.90;;;;;;5093544;28;20040;-66
2023/12/05 06:21:40;;;;;;;36.58;26.17;;;0.60;99.90;;;;;;5095494;28;20044;-66
2023/12/05 06:24:08;;;;;;;36.55;25.67;;;0.60;99.90;;;;;;5095375;28;20416;-66
2023/12/05 06:26:34;;;;;;;34.85;25.08;;;0.60;99.90;;;;;;5095646;28;20039;-66
2023/12/05 06:29:04;;;;;;;32.97;24.73;;;0.70;99.90;;;;;;5093264;28;20043;-66
2023/12/05 06:31:29;;;;;;;34.85;24.33;;;0.60;99.90;;;;;;5095124;28;21026;-66
2023/12/05 06:33:55;;;;;;;36.03;25.77;;;0.60;99.90;;;;;;5099633;27;20047;-66
2023/12/05 06:36:21;;;;;;;35.75;24.13;;;0.70;99.90;;;;;;5093071;28;20047;-66
2023/12/05 06:38:47;;;;;;;37.13;25.85;;;0.70;99.90;;;;;;5097320;28;20749;-66
2023/12/05 06:41:12;;;;;;;31.80;23.65;;;0.70;99.90;;;;;;5096427;28;20040;-66
2023/12/05 06:43:38;;;;;;;32.33;24.45;;;0.60;99.90;;;;;;5110737;27;20109;-66
2023/12/05 06:46:04;;;;;;;36.08;25.42;;;0.70;99.90;;;;;;5101478;28;20039;-66
2023/12/05 06:48:29;;;;;;;36.42;25.88;;;0.60;99.90;;;;;;5097239;28;20122;-66
2023/12/05 06:50:55;;;;;;;36.90;25.83;;;0.60;99.90;;;;;;5091701;27;20048;-66
2023/12/05 06:53:21;;;;;;;38.95;25.33;;;0.60;99.90;;;;;;5096449;28;20036;-66
2023/12/05 06:55:49;;;;;;;35.58;24.15;;;0.60;99.90;;;;;;5094817;28;20036;-66
2023/12/05 06:58:15;;;;;;;33.42;24.27;;;0.50;99.90;;;;;;5096031;28;20024;-66
2023/12/05 07:00:41;;;;;;;39.60;24.80;;;0.60;99.90;;;;;;5095912;28;20217;-66
2023/12/05 07:03:07;;;;;;;33.40;23.73;;;0.60;99.90;;;;;;5093233;28;20412;-66
2023/12/05 07:05:33;;;;;;;33.13;24.38;;;0.60;99.90;;;;;;5096698;28;20028;-66
2023/12/05 07:08:00;;;;;;;36.25;26.30;;;0.60;99.90;;;;;;5099395;28;20044;-67
2023/12/05 07:10:26;;;;;;;33.92;24.50;;;1.40;99.90;;;;;;5093191;28;20088;-66
2023/12/05 07:12:52;;;;;;;33.75;23.75;;;0.60;99.90;;;;;;5096705;28;20356;-66
2023/12/05 07:15:18;;;;;;;33.30;24.48;;;0.60;99.90;;;;;;5099691;28;20197;-66
2023/12/05 07:17:44;;;;;;;34.25;25.17;;;0.60;99.90;;;;;;5099283;28;20497;-66
2023/12/05 07:20:10;;;;;;;36.17;25.38;;;0.60;99.90;;;;;;5098173;28;20049;-66
2023/12/05 07:22:36;;;;;;;33.63;24.20;;;0.60;99.90;;;;;;5095226;28;20047;-66
2023/12/05 07:25:02;;;;;;;37.72;25.02;;;0.60;99.90;;;;;;5098167;28;20035;-66
2023/12/05 07:27:28;;;;;;;36.08;24.55;;;0.60;99.90;;;;;;5097659;28;20043;-66
2023/12/05 07:29:54;;;;;;;34.67;24.77;;;0.60;99.90;;;;;;5097157;28;20039;-66
2023/12/05 07:32:19;;;;;;;36.88;25.63;;;0.60;99.90;;;;;;5097992;28;20043;-66
2023/12/05 07:34:45;;;;;;;33.53;24.13;;;0.60;99.90;;;;;;5097185;28;20097;-66
2023/12/05 07:37:11;;;;;;;35.55;25.08;;;0.60;99.90;;;;;;5098509;28;20044;-66
2023/12/05 07:39:37;;;;;;;34.80;24.45;;;0.60;99.90;;;;;;5091309;28;20040;-66
2023/12/05 07:42:02;;;;;;;38.60;26.02;;;0.60;99.90;;;;;;5098331;28;20402;-66
2023/12/05 07:44:28;;;;;;;36.45;25.58;;;0.60;99.90;;;;;;5096432;28;20043;-66
2023/12/05 07:46:54;;;;;;;37.28;25.77;;;0.60;99.90;;;;;;5097895;28;20422;-66
2023/12/05 07:49:20;;;;;;;32.65;23.95;;;0.60;99.90;;;;;;5096617;28;20035;-66
2023/12/05 07:51:47;;;;;;;35.38;24.85;;;0.60;99.90;;;;;;5101508;27;20088;-66
2023/12/05 07:54:12;;;;;;;33.92;23.17;;;0.60;99.90;;;;;;5097142;28;20044;-66
2023/12/05 07:56:38;;;;;;;34.28;23.67;;;0.60;99.90;;;;;;5094631;28;20091;-66
2023/12/05 07:59:04;;;;;;;36.33;24.63;;;0.60;99.90;;;;;;5098610;27;20065;-66
2023/12/05 08:01:29;;;;;;;34.28;23.52;;;0.60;99.90;;;;;;5098792;27;20406;-66
2023/12/05 08:03:57;;;;;;;33.55;23.85;;;0.60;99.90;;;;;;5093887;28;20067;-66
2023/12/05 08:06:25;;;;;;;34.55;23.67;;;0.60;99.90;;;;;;5094274;28;20066;-66
2023/12/05 08:08:51;;;;;;;30.90;23.52;;;0.60;99.90;;;;;;5099404;27;20109;-66
2023/12/05 08:11:19;;;;;;;34.20;23.88;;;0.60;99.90;;;;;;5089375;28;20036;-66
2023/12/05 08:13:44;;;;;;;33.67;24.08;;;0.60;99.90;;;;;;5095698;27;20391;-66
2023/12/05 08:16:10;;;;;;;28.00;21.42;;;0.70;99.90;;;;;;5093230;27;20039;-66
2023/12/05 08:18:36;;;;;;;32.63;24.10;;;0.70;99.90;;;;;;5096216;27;20061;-66
2023/12/05 08:21:02;;;;;;;31.02;22.55;;;0.20;99.90;;;;;;5092505;27;20389;-66
2023/12/05 08:23:28;;;;;;;33.53;23.27;;;0.70;99.90;;;;;;5093041;28;20039;-66
2023/12/05 08:25:53;;;;;;;33.58;23.45;;;0.70;99.90;;;;;;5094372;27;20040;-66
2023/12/05 08:28:19;;;;;;;33.47;23.38;;;0.70;99.90;;;;;;5095614;28;20024;-66
2023/12/05 08:30:44;;;;;;;33.03;23.52;;;0.70;99.90;;;;;;5092259;27;20066;-66
2023/12/05 08:33:10;;;;;;;34.05;23.65;;;0.80;99.90;;;;;;5096890;28;20043;-66
2023/12/05 08:35:36;;;;;;;32.72;22.05;;;0.80;99.90;;;;;;5095972;28;20043;-66
2023/12/05 08:38:02;;;;;;;35.38;22.98;;;0.70;99.90;;;;;;5100687;28;20036;-66
2023/12/05 08:40:28;;;;;;;33.47;23.13;;;0.70;99.90;;;;;;5097412;27;20466;-66
2023/12/05 08:42:54;;;;;;;37.65;25.00;;;0.80;99.90;;;;;;5099810;28;20044;-67
2023/12/05 08:45:19;;;;;;;31.67;24.35;;;0.80;99.90;;;;;;5096881;28;20392;-67
2023/12/05 08:47:45;;;;;;;35.38;24.45;;;0.80;99.90;;;;;;5100402;28;20039;-67
2023/12/05 08:50:11;;;;;;;35.25;24.50;;;0.80;99.90;;;;;;5097565;28;20036;-67
2023/12/05 08:52:36;;;;;;;31.42;23.60;;;0.80;99.90;;;;;;5100103;27;20039;-67
2023/12/05 08:55:02;;;;;;;34.50;25.45;;;0.80;99.90;;;;;;5097487;28;20127;-67
2023/12/05 08:57:28;;;;;;;35.55;24.02;;;0.80;99.90;;;;;;5079151;28;20559;-67
2023/12/05 08:59:53;;;;;;;32.35;23.88;;;0.90;99.90;;;;;;5097833;27;20047;-67
2023/12/05 09:02:20;;;;;;;36.10;25.50;;;0.90;99.90;;;;;;5093933;28;20050;-67
2023/12/05 09:04:45;;;;;;;31.15;23.70;;;0.90;99.90;;;;;;5095389;27;20122;-67
2023/12/05 09:07:11;;;;;;;30.77;23.58;;;0.90;99.90;;;;;;5098912;28;20131;-67
2023/12/05 09:09:41;;;;;;;29.02;22.40;;;1.00;99.90;;;;;;5096857;27;20661;-67
2023/12/05 09:12:07;;;;;;;28.98;22.15;;;1.00;99.90;;;;;;5095610;28;20101;-67
2023/12/05 09:14:33;;;;;;;29.95;22.73;;;1.10;99.90;;;;;;5096737;28;20047;-68
2023/12/05 09:16:59;;;;;;;31.17;23.25;;;1.10;99.90;;;;;;5094516;28;20036;-68
2023/12/05 09:19:25;;;;;;;27.52;21.38;;;1.20;99.90;;;;;;5100310;27;21096;-67
2023/12/05 09:21:52;;;;;;;31.90;23.40;;;1.20;99.90;;;;;;5098091;28;20072;-67
2023/12/05 09:24:19;;;;;;;29.13;22.77;;;1.20;99.90;;;;;;5094846;28;20102;-68
2023/12/05 09:26:44;;;;;;;28.80;21.20;;;1.10;99.90;;;;;;5097433;27;20449;-68
2023/12/05 09:29:10;;;;;;;27.52;21.95;;;1.30;99.90;;;;;;5094149;28;20030;-67
2023/12/05 09:31:36;;;;;;;29.98;21.52;;;1.90;99.90;;;;;;5097184;28;20051;-68
2023/12/05 09:34:05;;;;;;;26.23;21.02;;;1.30;99.90;;;;;;5095436;28;20553;-68
2023/12/05 09:36:31;;;;;;;27.30;21.92;;;1.20;99.90;;;;;;5104395;27;20051;-68
2023/12/05 09:38:56;;;;;;;27.48;21.60;;;1.30;99.90;;;;;;5096495;28;20474;-67
2023/12/05 09:41:23;;;;;;;27.15;21.60;;;1.20;99.90;;;;;;5095716;28;20100;-68
2023/12/05 09:43:52;;;;;;;26.98;22.23;;;1.30;99.90;;;;;;5096958;28;20130;-69
2023/12/05 09:46:21;;;;;;;27.75;22.25;;;1.20;99.90;;;;;;5099127;28;20036;-69
2023/12/05 09:48:48;;;;;;;27.05;21.60;;;1.30;99.90;;;;;;5078761;27;20042;-69
2023/12/05 09:51:17;;;;;;;28.77;22.15;;;1.30;99.90;;;;;;5098578;28;20028;-68
2023/12/05 09:53:47;;;;;;;27.23;22.20;;;1.20;99.90;;;;;;5097797;28;20040;-69
2023/12/05 09:56:14;;;;;;;26.67;21.77;;;1.30;99.90;;;;;;5096356;28;20119;-69
2023/12/05 09:58:46;;;;;;;29.15;22.27;;;1.20;99.90;;;;;;5095857;28;20043;-68
2023/12/05 10:01:16;;;;;;;27.58;22.02;;;1.30;99.90;;;;;;5094174;28;20173;-68
2023/12/05 10:03:44;;;;;;;27.08;21.83;;;1.20;99.90;;;;;;5097331;27;20044;-68
2023/12/05 10:06:11;;;;;;;28.02;22.13;;;1.30;99.90;;;;;;5099065;28;20075;-68
2023/12/05 10:08:38;;;;;;;27.65;22.65;;;1.30;99.90;;;;;;5094096;28;20544;-69
2023/12/05 10:11:10;;;;;;;27.70;22.33;;;1.30;99.90;;;;;;5097496;28;20063;-67
2023/12/05 10:13:38;;;;;;;27.38;21.25;;;1.30;99.90;;;;;;5096786;28;20036;-69
2023/12/05 10:16:06;;;;;;;31.20;22.23;;;1.30;99.90;;;;;;5095432;28;20055;-70
2023/12/05 10:18:33;;;;;;;28.75;23.17;;;1.30;99.90;;;;;;5096848;28;20056;-66
2023/12/05 10:20:59;;;;;;;25.80;21.80;;;1.40;99.90;;;;;;5097539;28;20394;-68
2023/12/05 10:23:25;;;;;;;24.95;20.42;;;1.40;99.90;;;;;;5096626;28;20054;-68
2023/12/05 10:25:52;;;;;;;28.25;22.02;;;1.30;99.90;;;;;;5095094;28;20316;-67
2023/12/05 10:28:17;;;;;;;26.65;20.98;;;1.30;99.90;;;;;;5094055;28;20135;-68
2023/12/05 10:30:43;;;;;;;27.13;21.60;;;1.30;99.90;;;;;;5094598;28;20525;-68
2023/12/05 10:33:13;;;;;;;26.88;22.15;;;1.20;99.90;;;;;;5098536;28;20036;-68
2023/12/05 10:35:41;;;;;;;28.35;20.55;;;1.30;99.90;;;;;;5092443;28;20054;-68
2023/12/05 10:38:09;;;;;;;27.60;21.80;;;1.30;99.90;;;;;;5097340;27;20088;-67
2023/12/05 10:40:57;;;;;;;27.20;22.08;;;1.30;99.90;;;;;;5127480;27;20558;-66
2023/12/05 10:43:24;;;;;;;30.20;21.63;;;1.30;99.90;;;;;;5093986;28;20039;-66
2023/12/05 10:45:50;;;;;;;25.90;21.95;;;1.30;99.90;;;;;;5092818;28;20122;-66
2023/12/05 10:48:17;;;;;;;26.10;21.90;;;1.40;99.90;;;;;;5093852;28;20075;-69
2023/12/05 10:50:45;;;;;;;27.85;21.67;;;1.40;99.90;;;;;;5095428;28;20042;-70
2023/12/05 10:53:11;;;;;;;27.35;21.45;;;1.40;99.90;;;;;;5096104;27;20044;-69
2023/12/05 10:55:37;;;;;;;31.27;22.90;;;1.30;99.90;;;;;;5094673;28;20054;-67
2023/12/05 10:58:03;;;;;;;25.13;21.75;;;1.40;99.90;;;;;;5096153;28;20044;-68
2023/12/05 11:00:29;;;;;;;25.63;21.15;;;1.40;99.90;;;;;;5096108;28;20815;-68
2023/12/05 11:02:55;;;;;;;26.17;21.90;;;1.30;99.90;;;;;;5096569;28;20076;-67
2023/12/05 11:05:25;;;;;;;30.20;23.38;;;1.40;99.90;;;;;;5095912;28;20078;-70
2023/12/05 11:07:52;;;;;;;26.80;22.17;;;1.40;99.90;;;;;;5099603;28;20035;-70
2023/12/05 11:10:18;;;;;;;24.92;22.02;;;1.40;99.90;;;;;;5099306;28;20059;-70
2023/12/05 11:12:48;;;;;;;27.58;22.42;;;1.40;99.90;;;;;;5094781;28;20040;-70
2023/12/05 11:15:18;;;;;;;25.92;22.50;;;1.40;99.90;;;;;;5095732;28;20254;-70
2023/12/05 11:17:53;;;;;;;27.70;22.58;;;1.50;99.90;;;;;;5091138;28;20534;-68
2023/12/05 11:20:31;;;;;;;27.73;22.80;;;1.50;99.90;;;;;;5092991;28;20083;-67
2023/12/05 11:23:27;;;;;;;23.52;20.75;;;1.50;99.90;;;;;;5097417;28;20105;-73
2023/12/05 11:26:26;;;;;;;25.73;21.13;;;1.60;99.90;;;;;;5097887;27;20194;-69
2023/12/05 11:29:24;;;;;;;27.17;21.80;;;1.60;99.90;;;;;;5098127;27;20047;-68
2023/12/05 11:32:10;;;;;;;26.30;21.60;;;1.70;99.90;;;;;;5064666;27;20162;-68
2023/12/05 11:35:23;;;;;;;27.02;20.67;;;1.70;99.90;;;;;;5099726;27;20061;-69
2023/12/05 11:37:55;;;;;;;29.40;21.95;;;1.60;99.90;;;;;;5043400;28;20045;-74
2023/12/05 11:40:21;;;;;;;25.67;21.05;;;1.70;99.90;;;;;;5090308;28;20090;-67
2023/12/05 11:43:07;;;;;;;23.27;20.67;;;1.60;99.90;;;;;;5100579;27;20048;-69
2023/12/05 11:45:35;;;;;;;22.27;19.77;;;1.60;99.90;;;;;;5095907;27;20111;-69
2023/12/05 11:48:01;;;;;;;27.38;21.08;;;1.50;99.90;;;;;;5100210;27;20039;-69
2023/12/05 11:50:39;;;;;;;26.05;21.77;;;1.50;99.90;;;;;;5103193;27;20029;-68
2023/12/05 11:53:06;;;;;;;24.05;20.00;;;1.40;99.90;;;;;;5093602;27;20051;-69
2023/12/05 11:55:32;;;;;;;27.55;20.60;;;1.40;99.90;;;;;;5106526;27;20058;-68
2023/12/05 11:57:57;;;;;;;27.10;22.02;;;1.40;99.90;;;;;;5097516;28;20123;-67
2023/12/05 12:00:26;;;;;;;25.45;20.65;;;1.30;99.90;;;;;;5095695;27;20046;-67
2023/12/05 12:02:57;;;;;;;29.25;21.27;;;1.40;99.90;;;;;;5100356;27;20047;-65
2023/12/05 12:05:23;;;;;;;27.95;21.92;;;1.40;99.90;;;;;;5102470;28;20123;-70
2023/12/05 12:07:52;;;;;;;25.63;20.38;;;1.40;99.90;;;;;;5099241;28;20044;-67
2023/12/05 12:10:18;;;;;;;25.80;21.73;;;1.30;99.90;;;;;;5095406;28;20039;-67
2023/12/05 12:12:45;;;;;;;26.35;20.35;;;1.30;99.90;;;;;;5094161;27;20566;-67
2023/12/05 12:15:11;;;;;;;25.95;21.55;;;1.20;99.90;;;;;;5101823;27;20050;-67
2023/12/05 12:17:42;;;;;;;29.10;22.08;;;1.20;99.90;;;;;;5092366;28;20501;-68
2023/12/05 12:20:14;;;;;;;26.95;21.40;;;1.20;99.90;;;;;;5097435;27;20116;-67
2023/12/05 12:22:41;;;;;;;28.60;22.23;;;1.20;99.90;;;;;;5096949;28;20039;-67
2023/12/05 12:25:17;;;;;;;29.23;22.38;;;1.20;99.90;;;;;;5101648;27;20186;-67
2023/12/05 12:27:44;;;;;;;28.00;21.80;;;1.10;99.90;;;;;;5095041;28;20469;-67
2023/12/05 12:30:14;;;;;;;30.83;22.33;;;1.10;99.90;;;;;;5079045;27;20095;-68
2023/12/05 12:33:04;;;;;;;27.35;21.63;;;1.10;99.90;;;;;;5095327;28;20196;-67
2023/12/05 12:35:29;;;;;;;29.85;21.67;;;1.10;99.90;;;;;;5096042;27;20059;-68
2023/12/05 12:37:56;;;;;;;29.17;22.02;;;1.10;99.90;;;;;;5096461;28;20039;-68